createdAt,value
2017-07-27T00:01:24.962Z,87.10
2017-07-27T00:03:53.200Z,88.10
2017-07-27T00:06:20.691Z,87.20
2017-07-27T00:08:48.232Z,87.30
2017-07-27T00:11:15.709Z,87.40
2017-07-27T00:13:43.170Z,87.20
2017-07-27T00:16:11.429Z,87.30
2017-07-27T00:18:38.995Z,87.20
2017-07-27T00:21:06.449Z,87.30
2017-07-27T00:23:34.686Z,86.90
2017-07-27T00:26:02.175Z,87.10
2017-07-27T00:28:29.628Z,87.10
2017-07-27T00:30:57.081Z,86.40
2017-07-27T00:33:24.656Z,86.60
2017-07-27T00:35:52.211Z,86.70
2017-07-27T00:38:19.762Z,86.80
2017-07-27T00:40:47.317Z,86.80
2017-07-27T00:43:14.773Z,86.90
2017-07-27T00:45:42.338Z,86.60
2017-07-27T00:48:09.908Z,86.50
2017-07-27T00:50:37.556Z,86.80
2017-07-27T00:53:07.942Z,86.70
2017-07-27T00:55:35.412Z,86.90
2017-07-27T00:58:02.956Z,86.60
2017-07-27T01:00:30.418Z,86.50
2017-07-27T01:02:57.879Z,86.20
2017-07-27T01:05:25.351Z,85.90
2017-07-27T01:07:52.802Z,86.00
2017-07-27T01:10:20.273Z,85.90
2017-07-27T01:12:47.734Z,86.10
2017-07-27T01:15:15.301Z,86.00
2017-07-27T01:17:42.768Z,85.80
2017-07-27T01:20:10.986Z,85.60
2017-07-27T01:22:38.458Z,86.00
2017-07-27T01:25:05.948Z,86.10
2017-07-27T01:27:34.933Z,86.20
2017-07-27T01:30:02.410Z,86.20
2017-07-27T01:32:30.670Z,86.10
2017-07-27T01:34:58.142Z,86.00
2017-07-27T01:37:26.403Z,85.50
2017-07-27T01:39:53.953Z,85.40
2017-07-27T01:42:21.519Z,85.70
2017-07-27T01:44:48.973Z,85.80
2017-07-27T01:47:16.530Z,85.40
2017-07-27T01:49:44.096Z,85.70
2017-07-27T01:52:11.648Z,85.80
2017-07-27T01:54:39.114Z,85.60
2017-07-27T01:57:06.569Z,85.20
2017-07-27T01:59:34.123Z,85.40
2017-07-27T02:02:01.678Z,85.00
2017-07-27T02:04:29.243Z,85.30
2017-07-27T02:06:56.695Z,85.00
2017-07-27T02:09:24.267Z,85.10
2017-07-27T02:11:52.485Z,84.80
2017-07-27T02:14:19.959Z,84.80
2017-07-27T02:16:47.438Z,84.40
2017-07-27T02:19:15.003Z,84.50
2017-07-27T02:21:42.459Z,84.50
2017-07-27T02:24:09.934Z,84.60
2017-07-27T02:26:38.193Z,84.40
2017-07-27T02:29:05.750Z,84.30
2017-07-27T02:31:33.310Z,84.70
2017-07-27T02:34:00.854Z,84.70
2017-07-27T02:36:28.409Z,84.80
2017-07-27T02:38:55.885Z,84.70
2017-07-27T02:41:23.443Z,84.80
2017-07-27T02:43:50.989Z,84.50
2017-07-27T02:46:18.555Z,84.70
2017-07-27T02:48:46.119Z,85.00
2017-07-27T02:51:13.675Z,84.50
2017-07-27T02:53:41.225Z,84.70
2017-07-27T02:56:08.795Z,84.70
2017-07-27T02:58:36.352Z,84.60
2017-07-27T03:01:03.902Z,84.40
2017-07-27T03:03:31.471Z,84.70
2017-07-27T03:05:59.027Z,85.00
2017-07-27T03:08:26.480Z,85.10
2017-07-27T03:10:54.037Z,85.20
2017-07-27T03:13:21.603Z,85.30
2017-07-27T03:15:49.058Z,85.40
2017-07-27T03:18:17.311Z,85.50
2017-07-27T03:20:44.774Z,85.40
2017-07-27T03:23:13.025Z,85.20
2017-07-27T03:25:40.528Z,85.20
2017-07-27T03:28:07.985Z,85.30
2017-07-27T03:30:36.254Z,85.60
2017-07-27T03:33:03.811Z,85.30
2017-07-27T03:35:31.275Z,85.20
2017-07-27T03:37:58.742Z,85.10
2017-07-27T03:40:26.965Z,85.30
2017-07-27T03:42:54.447Z,85.20
2017-07-27T03:45:21.915Z,85.60
2017-07-27T03:47:49.470Z,85.50
2017-07-27T03:50:17.031Z,85.70
2017-07-27T03:52:44.590Z,85.40
2017-07-27T03:55:12.241Z,86.00
2017-07-27T03:57:39.714Z,84.90
2017-07-27T04:00:07.937Z,84.00
2017-07-27T04:02:35.430Z,84.50
2017-07-27T04:05:03.015Z,84.70
2017-07-27T04:07:31.270Z,85.00
2017-07-27T04:09:58.747Z,84.90
2017-07-27T04:12:27.009Z,85.20
2017-07-27T04:14:55.250Z,85.80
2017-07-27T04:17:22.739Z,85.00
2017-07-27T04:19:50.291Z,84.80
2017-07-27T04:22:17.854Z,84.70
2017-07-27T04:24:45.415Z,84.60
2017-07-27T04:27:12.974Z,84.30
2017-07-27T04:29:40.430Z,84.40
2017-07-27T04:32:07.978Z,83.80
2017-07-27T04:34:35.442Z,83.50
2017-07-27T04:37:03.017Z,83.50
2017-07-27T04:39:31.250Z,83.90
2017-07-27T04:41:58.840Z,83.70
2017-07-27T04:44:26.303Z,83.70
2017-07-27T04:46:54.558Z,83.00
2017-07-27T04:49:22.115Z,82.90
2017-07-27T04:51:49.691Z,83.40
2017-07-27T04:54:17.248Z,83.40
2017-07-27T04:56:56.565Z,83.10
2017-07-27T04:59:24.035Z,83.00
2017-07-27T05:01:51.599Z,82.80
2017-07-27T05:04:19.843Z,82.40
2017-07-27T05:06:47.298Z,82.30
2017-07-27T05:09:14.777Z,83.00
2017-07-27T05:11:42.429Z,82.30
2017-07-27T05:14:09.894Z,81.60
2017-07-27T05:16:37.454Z,81.20
2017-07-27T05:19:04.931Z,81.60
2017-07-27T05:21:33.158Z,81.50
2017-07-27T05:24:00.635Z,81.40
2017-07-27T05:26:28.108Z,80.50
2017-07-27T05:28:55.579Z,80.90
2017-07-27T05:31:23.798Z,79.70
2017-07-27T05:33:51.295Z,79.50
2017-07-27T05:36:18.851Z,79.70
2017-07-27T05:38:46.309Z,79.70
2017-07-27T05:41:13.917Z,79.80
2017-07-27T05:43:41.365Z,78.80
2017-07-27T05:46:08.869Z,79.10
2017-07-27T05:48:36.429Z,79.70
2017-07-27T05:51:03.903Z,80.00
2017-07-27T05:53:32.222Z,79.40
2017-07-27T05:55:59.673Z,79.30
2017-07-27T05:58:27.177Z,78.80
2017-07-27T06:00:54.751Z,78.10
2017-07-27T06:03:22.977Z,78.20
2017-07-27T06:05:50.452Z,78.80
2017-07-27T06:08:17.910Z,79.40
2017-07-27T06:10:45.371Z,78.80
2017-07-27T06:13:12.849Z,79.20
2017-07-27T06:15:40.314Z,79.60
2017-07-27T06:18:08.558Z,80.50
2017-07-27T06:20:36.024Z,80.40
2017-07-27T06:23:03.491Z,80.80
2017-07-27T06:25:30.937Z,79.80
2017-07-27T06:27:58.505Z,80.20
2017-07-27T06:30:25.962Z,80.20
2017-07-27T06:32:53.426Z,80.40
2017-07-27T06:35:21.660Z,79.60
2017-07-27T06:37:49.128Z,79.40
2017-07-27T06:40:16.577Z,80.00
2017-07-27T06:42:44.067Z,79.80
2017-07-27T06:45:11.531Z,79.10
2017-07-27T06:47:39.805Z,79.40
2017-07-27T06:50:07.251Z,79.30
2017-07-27T06:52:34.811Z,78.90
2017-07-27T06:55:02.388Z,78.80
2017-07-27T06:57:30.616Z,78.20
2017-07-27T06:59:58.103Z,78.00
2017-07-27T07:02:25.680Z,78.10
2017-07-27T07:04:53.934Z,77.80
2017-07-27T07:07:21.441Z,77.80
2017-07-27T07:09:48.911Z,77.80
2017-07-27T07:12:16.382Z,77.70
2017-07-27T07:14:43.837Z,78.00
2017-07-27T07:17:11.327Z,77.70
2017-07-27T07:19:39.596Z,77.80
2017-07-27T07:22:07.063Z,76.80
2017-07-27T07:24:35.327Z,76.40
2017-07-27T07:27:03.608Z,76.20
2017-07-27T07:29:31.928Z,74.60
2017-07-27T07:31:59.444Z,75.00
2017-07-27T07:34:27.669Z,74.80
2017-07-27T07:36:55.135Z,73.70
2017-07-27T07:39:22.608Z,73.60
2017-07-27T07:41:50.179Z,73.90
2017-07-27T07:44:17.733Z,70.90
2017-07-27T07:46:45.298Z,73.40
2017-07-27T07:49:12.810Z,72.30
2017-07-27T07:51:40.262Z,70.80
2017-07-27T07:54:07.718Z,71.50
2017-07-27T07:56:35.187Z,71.60
2017-07-27T07:59:02.688Z,71.50
2017-07-27T08:01:30.154Z,70.50
2017-07-27T08:03:58.783Z,69.70
2017-07-27T08:06:26.298Z,69.60
2017-07-27T08:09:05.867Z,67.60
2017-07-27T08:11:33.431Z,68.70
2017-07-27T08:14:00.890Z,67.60
2017-07-27T08:16:28.388Z,66.90
2017-07-27T08:18:55.850Z,67.90
2017-07-27T08:21:23.315Z,65.60
2017-07-27T08:23:50.867Z,66.30
2017-07-27T08:26:18.318Z,62.50
2017-07-27T08:28:45.781Z,62.30
2017-07-27T08:31:13.246Z,63.30
2017-07-27T08:33:41.752Z,63.60
2017-07-27T08:36:09.265Z,63.50
2017-07-27T08:38:36.818Z,63.90
2017-07-27T08:41:04.287Z,64.40
2017-07-27T08:43:31.837Z,64.60
2017-07-27T08:45:59.422Z,64.10
2017-07-27T08:48:27.683Z,62.50
2017-07-27T08:50:55.247Z,62.40
2017-07-27T08:53:22.711Z,63.50
2017-07-27T08:55:50.966Z,62.70
2017-07-27T08:58:18.531Z,62.60
2017-07-27T09:00:46.064Z,63.00
2017-07-27T09:03:13.642Z,61.70
2017-07-27T09:05:41.105Z,62.00
2017-07-27T09:08:08.662Z,61.80
2017-07-27T09:10:36.213Z,60.30
2017-07-27T09:13:03.773Z,59.70
2017-07-27T09:15:31.346Z,60.00
2017-07-27T09:17:58.799Z,62.10
2017-07-27T09:20:26.366Z,61.70
2017-07-27T09:22:54.595Z,59.30
2017-07-27T09:25:22.053Z,59.30
2017-07-27T09:27:49.522Z,58.60
2017-07-27T09:30:16.986Z,57.00
2017-07-27T09:32:44.451Z,57.80
2017-07-27T09:35:11.916Z,57.80
2017-07-27T09:37:39.373Z,57.20
2017-07-27T09:40:06.943Z,57.00
2017-07-27T09:42:34.422Z,57.80
2017-07-27T09:45:01.937Z,57.70
2017-07-27T09:47:29.415Z,56.20
2017-07-27T09:49:57.665Z,57.00
2017-07-27T09:52:25.231Z,57.00
2017-07-27T09:54:52.799Z,57.40
2017-07-27T09:57:25.954Z,58.00
2017-07-27T09:59:53.448Z,58.20
2017-07-27T10:02:21.724Z,57.10
2017-07-27T10:04:49.946Z,56.00
2017-07-27T10:07:18.267Z,55.60
2017-07-27T10:09:45.823Z,55.60
2017-07-27T10:12:13.373Z,54.10
2017-07-27T10:14:40.933Z,55.30
2017-07-27T10:17:08.391Z,55.70
2017-07-27T10:19:35.862Z,54.60
2017-07-27T10:22:03.404Z,53.80
2017-07-27T10:24:31.681Z,55.30
2017-07-27T10:26:59.137Z,56.20
2017-07-27T10:29:26.697Z,56.20
2017-07-27T10:31:54.269Z,57.50
2017-07-27T10:34:21.785Z,57.40
2017-07-27T10:36:49.280Z,57.20
2017-07-27T10:39:17.716Z,55.90
2017-07-27T10:41:45.370Z,56.10
2017-07-27T10:44:12.829Z,56.80
2017-07-27T10:46:40.333Z,56.60
2017-07-27T10:49:07.882Z,57.50
2017-07-27T10:51:35.442Z,56.90
2017-07-27T10:54:02.893Z,57.50
2017-07-27T10:56:30.367Z,57.10
2017-07-27T10:58:57.909Z,56.90
2017-07-27T11:01:25.474Z,57.30
2017-07-27T11:03:53.214Z,56.80
2017-07-27T11:06:20.693Z,57.60
2017-07-27T11:08:48.249Z,58.30
2017-07-27T11:11:15.818Z,58.50
2017-07-27T11:13:43.283Z,58.90
2017-07-27T11:16:11.541Z,59.40
2017-07-27T11:18:38.997Z,59.30
2017-07-27T11:21:06.558Z,59.80
2017-07-27T11:23:34.123Z,60.10
2017-07-27T11:26:01.595Z,60.50
2017-07-27T11:28:29.821Z,61.60
2017-07-27T11:30:57.288Z,61.50
2017-07-27T11:33:24.750Z,62.10
2017-07-27T11:35:52.219Z,62.60
2017-07-27T11:38:19.774Z,63.40
2017-07-27T11:40:47.234Z,63.80
2017-07-27T11:43:14.788Z,64.20
2017-07-27T11:45:42.256Z,64.50
2017-07-27T11:48:09.730Z,65.00
2017-07-27T11:50:37.966Z,65.30
2017-07-27T11:53:05.537Z,65.30
2017-07-27T11:55:33.053Z,65.30
2017-07-27T11:58:00.571Z,65.50
2017-07-27T12:00:28.846Z,64.00
2017-07-27T12:02:57.113Z,64.40
2017-07-27T12:05:24.687Z,64.30
2017-07-27T12:07:52.945Z,60.30
2017-07-27T12:10:20.528Z,60.30
2017-07-27T12:12:48.739Z,62.40
2017-07-27T12:15:16.214Z,62.20
2017-07-27T12:17:43.679Z,63.40
2017-07-27T12:20:11.249Z,64.50
2017-07-27T12:22:38.816Z,66.10
2017-07-27T12:25:07.093Z,68.20
2017-07-27T12:27:34.553Z,67.70
2017-07-27T12:30:02.809Z,71.00
2017-07-27T12:32:30.266Z,71.60
2017-07-27T12:34:57.830Z,73.20
2017-07-27T12:37:25.382Z,73.40
2017-07-27T12:39:52.955Z,74.70
2017-07-27T12:42:20.500Z,75.40
2017-07-27T12:44:47.961Z,75.90
2017-07-27T12:47:15.485Z,76.90
2017-07-27T12:49:42.940Z,77.40
2017-07-27T12:52:10.434Z,78.20
2017-07-27T12:54:37.985Z,78.30
2017-07-27T12:57:05.559Z,78.60
2017-07-27T12:59:33.119Z,78.40
2017-07-27T13:02:00.674Z,78.90
2017-07-27T13:04:28.130Z,78.00
2017-07-27T13:06:55.690Z,78.70
2017-07-27T13:09:23.241Z,78.60
2017-07-27T13:11:50.734Z,78.70
2017-07-27T13:14:18.263Z,78.70
2017-07-27T13:16:45.824Z,78.70
2017-07-27T13:19:13.289Z,77.70
2017-07-27T13:21:41.516Z,78.20
2017-07-27T13:24:09.011Z,78.10
2017-07-27T13:26:36.465Z,78.20
2017-07-27T13:29:04.023Z,77.00
2017-07-27T13:31:31.983Z,75.60
2017-07-27T13:33:59.450Z,76.60
2017-07-27T13:36:27.007Z,76.50
2017-07-27T13:38:54.557Z,76.30
2017-07-27T13:41:22.026Z,76.70
2017-07-27T13:43:49.566Z,77.00
2017-07-27T13:46:17.167Z,76.80
2017-07-27T13:48:44.698Z,76.60
2017-07-27T13:51:12.167Z,76.20
2017-07-27T13:53:40.399Z,77.20
2017-07-27T13:56:07.878Z,77.20
2017-07-27T13:58:35.344Z,77.30
2017-07-27T14:01:02.924Z,77.20
2017-07-27T14:03:30.449Z,76.10
2017-07-27T14:05:57.918Z,75.90
2017-07-27T14:08:25.466Z,76.70
2017-07-27T14:10:52.938Z,75.70
2017-07-27T14:13:20.507Z,75.40
2017-07-27T14:15:48.757Z,74.80
2017-07-27T14:18:16.213Z,74.70
2017-07-27T14:20:43.773Z,73.50
2017-07-27T14:23:11.229Z,72.50
2017-07-27T14:25:38.847Z,70.00
2017-07-27T14:28:06.320Z,70.20
2017-07-27T14:30:33.806Z,69.50
2017-07-27T14:33:01.268Z,70.00
2017-07-27T14:35:28.817Z,68.70
2017-07-27T14:37:56.384Z,66.60
2017-07-27T14:40:23.933Z,66.80
2017-07-27T14:42:51.498Z,64.40
2017-07-27T14:45:19.063Z,65.40
2017-07-27T14:47:46.532Z,66.10
2017-07-27T14:50:14.777Z,67.20
2017-07-27T14:52:42.251Z,67.20
2017-07-27T14:55:09.798Z,67.90
2017-07-27T14:57:37.257Z,68.20
2017-07-27T15:00:04.824Z,67.70
2017-07-27T15:02:32.374Z,67.00
2017-07-27T15:04:59.938Z,64.20
2017-07-27T15:07:27.414Z,63.70
2017-07-27T15:09:55.646Z,63.10
2017-07-27T15:12:23.097Z,63.10
2017-07-27T15:14:50.580Z,62.90
2017-07-27T15:17:18.822Z,64.40
2017-07-27T15:19:46.319Z,64.40
2017-07-27T15:22:13.859Z,64.10
2017-07-27T15:24:41.327Z,62.10
2017-07-27T15:27:08.886Z,62.50
2017-07-27T15:29:36.437Z,63.50
2017-07-27T15:32:03.906Z,63.70
2017-07-27T15:34:31.465Z,61.60
2017-07-27T15:36:59.055Z,61.40
2017-07-27T15:39:26.590Z,61.90
2017-07-27T15:41:54.850Z,60.60
2017-07-27T15:44:22.306Z,60.40
2017-07-27T15:46:49.902Z,60.00
2017-07-27T15:49:17.353Z,61.50
2017-07-27T15:51:45.664Z,61.00
2017-07-27T15:54:13.163Z,61.00
2017-07-27T15:56:40.716Z,60.70
2017-07-27T15:59:08.274Z,60.10
2017-07-27T16:01:35.881Z,59.70
2017-07-27T16:04:03.335Z,60.10
2017-07-27T16:06:30.810Z,59.10
2017-07-27T16:08:58.275Z,59.00
2017-07-27T16:11:25.758Z,59.30
2017-07-27T16:13:53.331Z,58.60
2017-07-27T16:16:20.784Z,58.30
2017-07-27T16:18:49.023Z,58.90
2017-07-27T16:21:16.515Z,58.40
2017-07-27T16:23:44.066Z,59.40
2017-07-27T16:26:11.559Z,60.20
2017-07-27T16:28:39.010Z,61.60
2017-07-27T16:31:07.242Z,62.30
2017-07-27T16:33:34.693Z,62.30
2017-07-27T16:36:02.178Z,63.60
2017-07-27T16:38:29.735Z,63.60
2017-07-27T16:40:57.296Z,63.20
2017-07-27T16:43:25.526Z,65.10
2017-07-27T16:45:53.014Z,64.10
2017-07-27T16:48:20.600Z,64.30
2017-07-27T16:50:48.821Z,65.40
2017-07-27T16:53:16.363Z,65.40
2017-07-27T16:55:43.925Z,65.40
2017-07-27T16:58:11.424Z,66.80
2017-07-27T17:00:38.995Z,65.40
2017-07-27T17:03:06.463Z,65.60
2017-07-27T17:05:34.723Z,64.10
2017-07-27T17:08:02.270Z,64.10
2017-07-27T17:10:29.841Z,64.50
2017-07-27T17:12:57.384Z,63.40
2017-07-27T17:15:24.906Z,64.00
2017-07-27T17:17:52.375Z,64.80
2017-07-27T17:20:19.853Z,65.10
2017-07-27T17:22:47.310Z,65.10
2017-07-27T17:25:14.774Z,65.00
2017-07-27T17:27:42.247Z,64.70
2017-07-27T17:30:10.478Z,64.90
2017-07-27T17:32:37.961Z,64.70
2017-07-27T17:35:05.527Z,65.10
2017-07-27T17:37:33.077Z,65.70
2017-07-27T17:40:00.602Z,65.90
2017-07-27T17:42:28.093Z,66.00
2017-07-27T17:44:55.585Z,66.20
2017-07-27T17:47:23.825Z,66.60
2017-07-27T17:49:51.325Z,66.40
2017-07-27T17:52:18.851Z,66.50
2017-07-27T17:54:46.319Z,66.70
2017-07-27T17:57:14.573Z,66.70
2017-07-27T17:59:42.139Z,66.70
2017-07-27T18:02:09.699Z,67.20
2017-07-27T18:04:37.175Z,67.30
2017-07-27T18:07:05.411Z,67.90
2017-07-27T18:09:32.903Z,67.90
2017-07-27T18:12:01.147Z,67.80
2017-07-27T18:14:28.609Z,67.70
2017-07-27T18:16:56.178Z,68.10
2017-07-27T18:19:23.725Z,68.50
2017-07-27T18:21:51.182Z,68.60
2017-07-27T18:24:18.752Z,68.20
2017-07-27T18:26:46.223Z,68.70
2017-07-27T18:29:14.478Z,69.10
2017-07-27T18:31:42.051Z,69.10
2017-07-27T18:34:10.283Z,69.50
2017-07-27T18:36:37.738Z,69.40
2017-07-27T18:39:05.231Z,69.50
2017-07-27T18:41:32.699Z,69.60
2017-07-27T18:44:00.939Z,70.00
2017-07-27T18:46:28.410Z,69.80
2017-07-27T18:48:55.978Z,70.10
2017-07-27T18:51:23.462Z,70.70
2017-07-27T18:53:51.000Z,70.60
2017-07-27T18:56:18.453Z,70.90
2017-07-27T18:58:46.002Z,71.00
2017-07-27T19:01:14.274Z,71.30
2017-07-27T19:03:41.834Z,71.30
2017-07-27T19:06:09.302Z,71.50
2017-07-27T19:08:37.566Z,72.70
2017-07-27T19:11:05.147Z,71.80
2017-07-27T19:13:33.415Z,66.00
2017-07-27T19:16:00.967Z,65.90
2017-07-27T19:18:28.431Z,63.60
2017-07-27T19:20:56.732Z,65.40
2017-07-27T19:23:24.210Z,65.10
2017-07-27T19:25:51.715Z,67.00
2017-07-27T19:28:19.270Z,69.90
2017-07-27T19:30:46.835Z,71.40
2017-07-27T19:33:14.391Z,71.80
2017-07-27T19:35:41.950Z,70.80
2017-07-27T19:38:09.501Z,72.30
2017-07-27T19:40:36.964Z,72.10
2017-07-27T19:43:04.451Z,72.80
2017-07-27T19:45:31.984Z,72.80
2017-07-27T19:47:59.634Z,71.90
2017-07-27T19:50:27.199Z,72.60
2017-07-27T19:52:54.755Z,73.30
2017-07-27T19:55:22.305Z,73.30
2017-07-27T19:57:49.881Z,73.70
2017-07-27T20:00:17.334Z,74.80
2017-07-27T20:02:44.793Z,73.70
2017-07-27T20:05:13.057Z,75.20
2017-07-27T20:07:40.520Z,75.10
2017-07-27T20:10:08.070Z,74.80
2017-07-27T20:12:35.538Z,75.30
2017-07-27T20:15:03.002Z,75.90
2017-07-27T20:17:31.257Z,74.50
2017-07-27T20:19:58.717Z,74.50
2017-07-27T20:22:26.273Z,74.50
2017-07-27T20:24:53.754Z,74.20
2017-07-27T20:27:22.005Z,75.00
2017-07-27T20:29:49.474Z,75.00
2017-07-27T20:32:17.025Z,75.50
2017-07-27T20:34:44.493Z,74.80
2017-07-27T20:37:12.727Z,74.50
2017-07-27T20:39:40.213Z,74.30
2017-07-27T20:42:07.681Z,75.30
2017-07-27T20:44:35.917Z,75.20
2017-07-27T20:47:03.397Z,74.60
2017-07-27T20:49:30.954Z,75.20
2017-07-27T20:51:58.401Z,75.20
2017-07-27T20:54:25.965Z,75.30
2017-07-27T20:56:53.539Z,74.80
2017-07-27T20:59:21.095Z,75.30
2017-07-27T21:01:50.081Z,75.20
2017-07-27T21:04:17.643Z,75.20
2017-07-27T21:06:45.203Z,75.60
2017-07-27T21:09:13.475Z,75.60
2017-07-27T21:11:40.989Z,75.60
2017-07-27T21:14:08.491Z,76.00
2017-07-27T21:16:35.956Z,75.70
2017-07-27T21:19:03.507Z,76.10
2017-07-27T21:21:31.077Z,76.00
2017-07-27T21:23:59.375Z,75.60
2017-07-27T21:26:27.624Z,75.70
2017-07-27T21:28:55.092Z,75.70
2017-07-27T21:31:23.341Z,75.80
2017-07-27T21:33:50.897Z,75.70
2017-07-27T21:36:18.364Z,76.00
2017-07-27T21:38:45.926Z,75.70
2017-07-27T21:41:13.387Z,76.10
2017-07-27T21:43:40.934Z,75.90
2017-07-27T21:46:08.380Z,75.60
2017-07-27T21:48:35.949Z,75.60
2017-07-27T21:51:03.524Z,75.50
2017-07-27T21:53:30.977Z,76.10
2017-07-27T21:55:59.207Z,76.40
2017-07-27T21:58:26.708Z,75.70
2017-07-27T22:00:54.257Z,75.70
2017-07-27T22:03:21.818Z,75.60
2017-07-27T22:05:49.383Z,75.90
2017-07-27T22:08:16.925Z,76.20
2017-07-27T22:10:44.400Z,76.40
2017-07-27T22:13:11.896Z,76.70
2017-07-27T22:15:39.415Z,76.60
2017-07-27T22:18:06.890Z,76.60
2017-07-27T22:20:35.137Z,76.70
2017-07-27T22:23:02.609Z,76.70
2017-07-27T22:25:30.877Z,77.60
2017-07-27T22:27:58.340Z,76.70
2017-07-27T22:30:26.585Z,77.50
2017-07-27T22:32:54.167Z,76.90
2017-07-27T22:35:21.718Z,76.80
2017-07-27T22:37:49.165Z,76.70
2017-07-27T22:40:16.743Z,76.90
2017-07-27T22:42:44.298Z,76.90
2017-07-27T22:45:11.850Z,76.80
2017-07-27T22:47:39.415Z,76.70
2017-07-27T22:50:06.974Z,76.70
2017-07-27T22:52:34.421Z,76.90
2017-07-27T22:55:01.991Z,77.00
2017-07-27T22:57:29.462Z,77.10
2017-07-27T22:59:57.717Z,77.00
2017-07-27T23:02:25.991Z,77.10
2017-07-27T23:04:53.546Z,76.90
2017-07-27T23:07:21.001Z,77.00
2017-07-27T23:09:48.468Z,77.30
2017-07-27T23:12:16.027Z,77.40
2017-07-27T23:14:43.586Z,77.60
2017-07-27T23:17:11.182Z,77.80
2017-07-27T23:19:38.707Z,77.50
2017-07-27T23:22:06.250Z,77.50
2017-07-27T23:24:33.719Z,77.60
2017-07-27T23:27:01.181Z,77.90
2017-07-27T23:29:29.407Z,78.40
2017-07-27T23:31:56.900Z,78.00
2017-07-27T23:34:24.463Z,77.90
2017-07-27T23:36:52.023Z,78.00
2017-07-27T23:39:19.484Z,78.20
2017-07-27T23:41:46.945Z,78.10
2017-07-27T23:44:15.215Z,77.90
2017-07-27T23:46:42.670Z,77.70
2017-07-27T23:49:10.227Z,78.00
2017-07-27T23:51:37.777Z,77.80
2017-07-27T23:54:05.243Z,77.50
2017-07-27T23:56:32.803Z,77.40
2017-07-27T23:59:00.261Z,77.30
